sensor_id;sensor_type;location;lat;lon;timestamp;P1;durP1;ratioP1;P2;durP2;ratioP2
54599;SDS011;40500;51.084;16.958;2022-08-21T00:01:51;10.00;;;7.40;;
54599;SDS011;40500;51.084;16.958;2022-08-21T00:04:19;10.30;;;8.30;;
54599;SDS011;40500;51.084;16.958;2022-08-21T00:06:55;10.70;;;9.10;;
54599;SDS011;40500;51.084;16.958;2022-08-21T00:09:24;14.30;;;10.50;;
54599;SDS011;40500;51.084;16.958;2022-08-21T00:11:52;11.00;;;9.10;;
54599;SDS011;40500;51.084;16.958;2022-08-21T00:14:19;11.70;;;8.90;;
54599;SDS011;40500;51.084;16.958;2022-08-21T00:16:47;10.80;;;9.00;;
54599;SDS011;40500;51.084;16.958;2022-08-21T00:19:15;14.30;;;9.00;;
54599;SDS011;40500;51.084;16.958;2022-08-21T00:21:42;13.60;;;10.20;;
54599;SDS011;40500;51.084;16.958;2022-08-21T00:24:10;12.20;;;9.30;;
54599;SDS011;40500;51.084;16.958;2022-08-21T00:26:38;12.40;;;9.90;;
54599;SDS011;40500;51.084;16.958;2022-08-21T00:29:06;14.50;;;8.90;;
54599;SDS011;40500;51.084;16.958;2022-08-21T00:31:34;13.80;;;9.40;;
54599;SDS011;40500;51.084;16.958;2022-08-21T00:34:01;12.70;;;9.40;;
54599;SDS011;40500;51.084;16.958;2022-08-21T00:36:29;9.70;;;7.50;;
54599;SDS011;40500;51.084;16.958;2022-08-21T00:38:57;11.60;;;8.40;;
54599;SDS011;40500;51.084;16.958;2022-08-21T00:41:24;12.40;;;9.70;;
54599;SDS011;40500;51.084;16.958;2022-08-21T00:44:04;13.00;;;8.70;;
54599;SDS011;40500;51.084;16.958;2022-08-21T00:46:33;11.10;;;8.60;;
54599;SDS011;40500;51.084;16.958;2022-08-21T00:49:01;11.90;;;8.00;;
54599;SDS011;40500;51.084;16.958;2022-08-21T00:51:33;14.10;;;9.10;;
54599;SDS011;40500;51.084;16.958;2022-08-21T00:54:04;7.40;;;6.50;;
54599;SDS011;40500;51.084;16.958;2022-08-21T00:56:45;10.00;;;6.40;;
54599;SDS011;40500;51.084;16.958;2022-08-21T00:59:17;10.50;;;8.60;;
54599;SDS011;40500;51.084;16.958;2022-08-21T01:01:46;12.90;;;9.40;;
54599;SDS011;40500;51.084;16.958;2022-08-21T01:04:16;8.90;;;6.90;;
54599;SDS011;40500;51.084;16.958;2022-08-21T01:06:44;12.00;;;8.00;;
54599;SDS011;40500;51.084;16.958;2022-08-21T01:09:13;8.90;;;8.00;;
54599;SDS011;40500;51.084;16.958;2022-08-21T01:11:41;9.40;;;8.10;;
54599;SDS011;40500;51.084;16.958;2022-08-21T01:14:09;8.80;;;7.30;;
54599;SDS011;40500;51.084;16.958;2022-08-21T01:16:38;8.90;;;7.80;;
54599;SDS011;40500;51.084;16.958;2022-08-21T01:19:09;8.80;;;6.30;;
54599;SDS011;40500;51.084;16.958;2022-08-21T01:21:38;6.60;;;5.50;;
54599;SDS011;40500;51.084;16.958;2022-08-21T01:24:06;8.50;;;7.30;;
54599;SDS011;40500;51.084;16.958;2022-08-21T01:26:35;12.30;;;8.30;;
54599;SDS011;40500;51.084;16.958;2022-08-21T01:29:05;10.00;;;6.40;;
54599;SDS011;40500;51.084;16.958;2022-08-21T01:31:38;11.30;;;7.90;;
54599;SDS011;40500;51.084;16.958;2022-08-21T01:34:06;12.00;;;7.00;;
54599;SDS011;40500;51.084;16.958;2022-08-21T01:36:37;9.70;;;6.90;;
54599;SDS011;40500;51.084;16.958;2022-08-21T01:39:06;7.60;;;6.20;;
54599;SDS011;40500;51.084;16.958;2022-08-21T01:41:35;6.60;;;5.70;;
54599;SDS011;40500;51.084;16.958;2022-08-21T01:44:03;7.70;;;6.30;;
54599;SDS011;40500;51.084;16.958;2022-08-21T01:46:31;6.90;;;5.30;;
54599;SDS011;40500;51.084;16.958;2022-08-21T01:48:59;8.40;;;6.10;;
54599;SDS011;40500;51.084;16.958;2022-08-21T01:51:26;6.10;;;5.50;;
54599;SDS011;40500;51.084;16.958;2022-08-21T01:53:54;5.90;;;4.70;;
54599;SDS011;40500;51.084;16.958;2022-08-21T01:56:22;6.90;;;5.40;;
54599;SDS011;40500;51.084;16.958;2022-08-21T01:58:52;3.90;;;3.20;;
54599;SDS011;40500;51.084;16.958;2022-08-21T02:01:19;5.00;;;4.40;;
54599;SDS011;40500;51.084;16.958;2022-08-21T02:03:47;5.00;;;3.60;;
54599;SDS011;40500;51.084;16.958;2022-08-21T02:06:15;7.00;;;4.40;;
54599;SDS011;40500;51.084;16.958;2022-08-21T02:08:44;3.80;;;3.40;;
54599;SDS011;40500;51.084;16.958;2022-08-21T02:11:11;3.30;;;3.00;;
54599;SDS011;40500;51.084;16.958;2022-08-21T02:13:40;3.40;;;3.10;;
54599;SDS011;40500;51.084;16.958;2022-08-21T02:16:07;3.70;;;3.40;;
54599;SDS011;40500;51.084;16.958;2022-08-21T02:18:36;4.20;;;3.80;;
54599;SDS011;40500;51.084;16.958;2022-08-21T02:21:04;5.50;;;5.00;;
54599;SDS011;40500;51.084;16.958;2022-08-21T02:23:33;4.80;;;4.30;;
54599;SDS011;40500;51.084;16.958;2022-08-21T02:26:02;3.40;;;3.10;;
54599;SDS011;40500;51.084;16.958;2022-08-21T02:28:33;3.20;;;2.90;;
54599;SDS011;40500;51.084;16.958;2022-08-21T02:31:02;2.80;;;2.60;;
54599;SDS011;40500;51.084;16.958;2022-08-21T02:33:31;3.10;;;2.80;;
54599;SDS011;40500;51.084;16.958;2022-08-21T02:36:00;2.70;;;2.50;;
54599;SDS011;40500;51.084;16.958;2022-08-21T02:38:29;3.50;;;3.10;;
54599;SDS011;40500;51.084;16.958;2022-08-21T02:40:59;3.00;;;2.70;;
54599;SDS011;40500;51.084;16.958;2022-08-21T02:43:28;3.50;;;3.10;;
54599;SDS011;40500;51.084;16.958;2022-08-21T02:45:56;3.30;;;3.00;;
54599;SDS011;40500;51.084;16.958;2022-08-21T02:48:26;3.40;;;3.10;;
54599;SDS011;40500;51.084;16.958;2022-08-21T02:50:56;3.10;;;2.80;;
54599;SDS011;40500;51.084;16.958;2022-08-21T02:53:26;3.00;;;2.50;;
54599;SDS011;40500;51.084;16.958;2022-08-21T02:55:56;3.40;;;2.80;;
54599;SDS011;40500;51.084;16.958;2022-08-21T02:58:25;4.70;;;2.90;;
54599;SDS011;40500;51.084;16.958;2022-08-21T03:00:54;3.50;;;2.60;;
54599;SDS011;40500;51.084;16.958;2022-08-21T03:03:22;3.80;;;2.70;;
54599;SDS011;40500;51.084;16.958;2022-08-21T03:05:50;3.00;;;2.70;;
54599;SDS011;40500;51.084;16.958;2022-08-21T03:08:18;3.30;;;2.90;;
54599;SDS011;40500;51.084;16.958;2022-08-21T03:10:50;3.30;;;2.70;;
54599;SDS011;40500;51.084;16.958;2022-08-21T03:13:19;2.80;;;2.60;;
54599;SDS011;40500;51.084;16.958;2022-08-21T03:15:47;2.50;;;2.30;;
54599;SDS011;40500;51.084;16.958;2022-08-21T03:18:16;2.70;;;2.50;;
54599;SDS011;40500;51.084;16.958;2022-08-21T03:20:45;2.90;;;2.60;;
54599;SDS011;40500;51.084;16.958;2022-08-21T03:23:13;3.10;;;2.60;;
54599;SDS011;40500;51.084;16.958;2022-08-21T03:25:46;3.20;;;2.70;;
54599;SDS011;40500;51.084;16.958;2022-08-21T03:28:15;2.70;;;2.10;;
54599;SDS011;40500;51.084;16.958;2022-08-21T03:30:47;3.10;;;2.80;;
54599;SDS011;40500;51.084;16.958;2022-08-21T03:33:16;2.60;;;2.40;;
54599;SDS011;40500;51.084;16.958;2022-08-21T03:35:51;2.50;;;2.30;;
54599;SDS011;40500;51.084;16.958;2022-08-21T03:38:24;3.00;;;2.80;;
54599;SDS011;40500;51.084;16.958;2022-08-21T03:40:55;2.40;;;2.20;;
54599;SDS011;40500;51.084;16.958;2022-08-21T03:43:24;2.50;;;2.30;;
54599;SDS011;40500;51.084;16.958;2022-08-21T03:45:57;2.90;;;2.70;;
54599;SDS011;40500;51.084;16.958;2022-08-21T03:48:24;2.70;;;2.40;;
54599;SDS011;40500;51.084;16.958;2022-08-21T03:50:52;2.90;;;2.60;;
54599;SDS011;40500;51.084;16.958;2022-08-21T03:53:20;2.90;;;2.40;;
54599;SDS011;40500;51.084;16.958;2022-08-21T03:55:49;2.60;;;2.40;;
54599;SDS011;40500;51.084;16.958;2022-08-21T03:58:20;4.80;;;2.60;;
54599;SDS011;40500;51.084;16.958;2022-08-21T04:00:51;5.00;;;3.00;;
54599;SDS011;40500;51.084;16.958;2022-08-21T04:03:25;4.60;;;3.20;;
54599;SDS011;40500;51.084;16.958;2022-08-21T04:05:54;3.40;;;2.50;;
54599;SDS011;40500;51.084;16.958;2022-08-21T04:08:22;3.30;;;2.90;;
54599;SDS011;40500;51.084;16.958;2022-08-21T04:10:51;5.60;;;3.40;;
54599;SDS011;40500;51.084;16.958;2022-08-21T04:13:22;2.80;;;2.50;;
54599;SDS011;40500;51.084;16.958;2022-08-21T04:15:49;3.30;;;3.00;;
54599;SDS011;40500;51.084;16.958;2022-08-21T04:18:18;5.70;;;2.80;;
54599;SDS011;40500;51.084;16.958;2022-08-21T04:20:46;3.10;;;2.90;;
54599;SDS011;40500;51.084;16.958;2022-08-21T04:23:18;4.10;;;2.30;;
54599;SDS011;40500;51.084;16.958;2022-08-21T04:25:50;2.60;;;2.40;;
54599;SDS011;40500;51.084;16.958;2022-08-21T04:28:19;3.00;;;2.70;;
54599;SDS011;40500;51.084;16.958;2022-08-21T04:30:48;2.60;;;2.40;;
54599;SDS011;40500;51.084;16.958;2022-08-21T04:33:17;2.50;;;2.30;;
54599;SDS011;40500;51.084;16.958;2022-08-21T04:35:45;2.90;;;2.30;;
54599;SDS011;40500;51.084;16.958;2022-08-21T04:38:12;2.60;;;2.30;;
54599;SDS011;40500;51.084;16.958;2022-08-21T04:40:40;3.00;;;2.30;;
54599;SDS011;40500;51.084;16.958;2022-08-21T04:43:09;2.20;;;2.00;;
54599;SDS011;40500;51.084;16.958;2022-08-21T04:45:41;2.10;;;2.00;;
54599;SDS011;40500;51.084;16.958;2022-08-21T04:48:12;1.90;;;1.80;;
54599;SDS011;40500;51.084;16.958;2022-08-21T04:50:43;2.30;;;2.00;;
54599;SDS011;40500;51.084;16.958;2022-08-21T04:53:18;1.80;;;1.70;;
54599;SDS011;40500;51.084;16.958;2022-08-21T04:55:48;1.60;;;1.50;;
54599;SDS011;40500;51.084;16.958;2022-08-21T04:58:19;2.50;;;2.30;;
54599;SDS011;40500;51.084;16.958;2022-08-21T05:00:49;2.40;;;2.20;;
54599;SDS011;40500;51.084;16.958;2022-08-21T05:03:20;2.50;;;2.30;;
54599;SDS011;40500;51.084;16.958;2022-08-21T05:05:49;1.90;;;1.80;;
54599;SDS011;40500;51.084;16.958;2022-08-21T05:08:18;2.10;;;1.90;;
54599;SDS011;40500;51.084;16.958;2022-08-21T05:10:49;2.00;;;1.70;;
54599;SDS011;40500;51.084;16.958;2022-08-21T05:13:17;1.60;;;1.50;;
54599;SDS011;40500;51.084;16.958;2022-08-21T05:15:45;1.90;;;1.70;;
54599;SDS011;40500;51.084;16.958;2022-08-21T05:18:13;1.70;;;1.40;;
54599;SDS011;40500;51.084;16.958;2022-08-21T05:20:41;1.80;;;1.70;;
54599;SDS011;40500;51.084;16.958;2022-08-21T05:23:12;3.70;;;1.60;;
54599;SDS011;40500;51.084;16.958;2022-08-21T05:25:40;2.50;;;2.30;;
54599;SDS011;40500;51.084;16.958;2022-08-21T05:28:09;2.00;;;1.90;;
54599;SDS011;40500;51.084;16.958;2022-08-21T05:30:39;1.80;;;1.70;;
54599;SDS011;40500;51.084;16.958;2022-08-21T05:33:07;2.50;;;2.10;;
54599;SDS011;40500;51.084;16.958;2022-08-21T05:35:34;2.40;;;2.10;;
54599;SDS011;40500;51.084;16.958;2022-08-21T05:38:04;2.40;;;2.20;;
54599;SDS011;40500;51.084;16.958;2022-08-21T05:40:42;2.60;;;2.20;;
54599;SDS011;40500;51.084;16.958;2022-08-21T05:43:10;2.40;;;2.00;;
54599;SDS011;40500;51.084;16.958;2022-08-21T05:45:38;3.60;;;2.10;;
54599;SDS011;40500;51.084;16.958;2022-08-21T05:48:11;2.50;;;2.30;;
54599;SDS011;40500;51.084;16.958;2022-08-21T05:50:41;2.30;;;2.10;;
54599;SDS011;40500;51.084;16.958;2022-08-21T05:53:10;2.50;;;2.30;;
54599;SDS011;40500;51.084;16.958;2022-08-21T05:55:39;2.70;;;2.50;;
54599;SDS011;40500;51.084;16.958;2022-08-21T05:58:12;2.40;;;2.20;;
54599;SDS011;40500;51.084;16.958;2022-08-21T06:00:41;2.60;;;2.40;;
54599;SDS011;40500;51.084;16.958;2022-08-21T06:03:13;2.60;;;2.10;;
54599;SDS011;40500;51.084;16.958;2022-08-21T06:05:43;2.80;;;2.60;;
54599;SDS011;40500;51.084;16.958;2022-08-21T06:08:11;3.80;;;2.60;;
54599;SDS011;40500;51.084;16.958;2022-08-21T06:10:39;2.90;;;2.60;;
54599;SDS011;40500;51.084;16.958;2022-08-21T06:13:07;4.50;;;2.60;;
54599;SDS011;40500;51.084;16.958;2022-08-21T06:15:36;3.40;;;2.60;;
54599;SDS011;40500;51.084;16.958;2022-08-21T06:18:04;2.70;;;2.40;;
54599;SDS011;40500;51.084;16.958;2022-08-21T06:20:32;4.20;;;2.70;;
54599;SDS011;40500;51.084;16.958;2022-08-21T06:23:00;3.60;;;2.50;;
54599;SDS011;40500;51.084;16.958;2022-08-21T06:25:29;2.80;;;1.80;;
54599;SDS011;40500;51.084;16.958;2022-08-21T06:28:00;7.00;;;2.00;;
54599;SDS011;40500;51.084;16.958;2022-08-21T06:30:29;5.20;;;2.10;;
54599;SDS011;40500;51.084;16.958;2022-08-21T06:32:57;4.50;;;2.10;;
54599;SDS011;40500;51.084;16.958;2022-08-21T06:35:25;2.00;;;1.90;;
54599;SDS011;40500;51.084;16.958;2022-08-21T06:37:55;2.90;;;2.00;;
54599;SDS011;40500;51.084;16.958;2022-08-21T06:40:23;2.70;;;2.30;;
54599;SDS011;40500;51.084;16.958;2022-08-21T06:42:51;1.80;;;1.60;;
54599;SDS011;40500;51.084;16.958;2022-08-21T06:45:19;3.80;;;2.00;;
54599;SDS011;40500;51.084;16.958;2022-08-21T06:47:48;4.30;;;2.30;;
54599;SDS011;40500;51.084;16.958;2022-08-21T06:50:15;3.10;;;2.30;;
54599;SDS011;40500;51.084;16.958;2022-08-21T06:52:43;2.60;;;2.20;;
54599;SDS011;40500;51.084;16.958;2022-08-21T06:55:11;3.30;;;2.30;;
54599;SDS011;40500;51.084;16.958;2022-08-21T06:57:47;5.80;;;2.60;;
54599;SDS011;40500;51.084;16.958;2022-08-21T07:00:19;3.60;;;2.50;;
54599;SDS011;40500;51.084;16.958;2022-08-21T07:02:47;2.70;;;2.20;;
54599;SDS011;40500;51.084;16.958;2022-08-21T07:05:15;3.20;;;2.40;;
54599;SDS011;40500;51.084;16.958;2022-08-21T07:07:44;2.80;;;2.00;;
54599;SDS011;40500;51.084;16.958;2022-08-21T07:10:12;4.00;;;2.80;;
54599;SDS011;40500;51.084;16.958;2022-08-21T07:12:50;4.30;;;3.00;;
54599;SDS011;40500;51.084;16.958;2022-08-21T07:15:27;3.10;;;2.70;;
54599;SDS011;40500;51.084;16.958;2022-08-21T07:17:56;3.50;;;2.50;;
54599;SDS011;40500;51.084;16.958;2022-08-21T07:20:25;5.10;;;3.00;;
54599;SDS011;40500;51.084;16.958;2022-08-21T07:22:54;5.10;;;3.00;;
54599;SDS011;40500;51.084;16.958;2022-08-21T07:25:23;5.00;;;3.10;;
54599;SDS011;40500;51.084;16.958;2022-08-21T07:27:50;4.50;;;3.00;;
54599;SDS011;40500;51.084;16.958;2022-08-21T07:30:18;5.50;;;3.00;;
54599;SDS011;40500;51.084;16.958;2022-08-21T07:32:46;5.60;;;3.20;;
54599;SDS011;40500;51.084;16.958;2022-08-21T07:35:15;5.40;;;3.60;;
54599;SDS011;40500;51.084;16.958;2022-08-21T07:37:44;4.10;;;3.00;;
54599;SDS011;40500;51.084;16.958;2022-08-21T07:40:12;4.20;;;2.90;;
54599;SDS011;40500;51.084;16.958;2022-08-21T07:42:42;5.00;;;2.20;;
54599;SDS011;40500;51.084;16.958;2022-08-21T07:45:10;3.60;;;2.80;;
54599;SDS011;40500;51.084;16.958;2022-08-21T07:47:39;3.30;;;2.10;;
54599;SDS011;40500;51.084;16.958;2022-08-21T07:50:09;3.70;;;2.40;;
54599;SDS011;40500;51.084;16.958;2022-08-21T07:52:37;3.80;;;1.80;;
54599;SDS011;40500;51.084;16.958;2022-08-21T07:55:06;5.50;;;2.50;;
54599;SDS011;40500;51.084;16.958;2022-08-21T07:57:37;5.90;;;2.50;;
54599;SDS011;40500;51.084;16.958;2022-08-21T08:00:07;3.40;;;2.50;;
54599;SDS011;40500;51.084;16.958;2022-08-21T08:02:37;5.20;;;2.10;;
54599;SDS011;40500;51.084;16.958;2022-08-21T08:05:06;2.50;;;1.80;;
54599;SDS011;40500;51.084;16.958;2022-08-21T08:07:37;4.20;;;2.00;;
54599;SDS011;40500;51.084;16.958;2022-08-21T08:10:06;3.60;;;2.20;;
54599;SDS011;40500;51.084;16.958;2022-08-21T08:12:36;4.10;;;2.60;;
54599;SDS011;40500;51.084;16.958;2022-08-21T08:15:08;3.80;;;2.20;;
54599;SDS011;40500;51.084;16.958;2022-08-21T08:17:37;4.10;;;2.10;;
54599;SDS011;40500;51.084;16.958;2022-08-21T08:20:05;4.40;;;2.30;;
54599;SDS011;40500;51.084;16.958;2022-08-21T08:22:34;3.10;;;2.00;;
54599;SDS011;40500;51.084;16.958;2022-08-21T08:25:04;5.80;;;2.20;;
54599;SDS011;40500;51.084;16.958;2022-08-21T08:27:35;3.10;;;1.90;;
54599;SDS011;40500;51.084;16.958;2022-08-21T08:30:05;2.30;;;2.10;;
54599;SDS011;40500;51.084;16.958;2022-08-21T08:32:36;2.40;;;2.00;;
54599;SDS011;40500;51.084;16.958;2022-08-21T08:35:05;2.20;;;1.80;;
54599;SDS011;40500;51.084;16.958;2022-08-21T08:37:34;3.10;;;2.00;;
54599;SDS011;40500;51.084;16.958;2022-08-21T08:40:09;3.00;;;2.40;;
54599;SDS011;40500;51.084;16.958;2022-08-21T08:42:39;3.60;;;2.10;;
54599;SDS011;40500;51.084;16.958;2022-08-21T08:45:08;4.80;;;2.60;;
54599;SDS011;40500;51.084;16.958;2022-08-21T08:47:39;3.40;;;2.20;;
54599;SDS011;40500;51.084;16.958;2022-08-21T08:50:12;2.60;;;1.70;;
54599;SDS011;40500;51.084;16.958;2022-08-21T08:52:46;4.10;;;2.60;;
54599;SDS011;40500;51.084;16.958;2022-08-21T08:55:20;4.00;;;2.50;;
54599;SDS011;40500;51.084;16.958;2022-08-21T08:57:53;4.50;;;2.30;;
54599;SDS011;40500;51.084;16.958;2022-08-21T09:00:23;3.40;;;2.50;;
54599;SDS011;40500;51.084;16.958;2022-08-21T09:02:52;2.50;;;1.90;;
54599;SDS011;40500;51.084;16.958;2022-08-21T09:05:23;2.60;;;2.30;;
54599;SDS011;40500;51.084;16.958;2022-08-21T09:07:56;2.30;;;2.10;;
54599;SDS011;40500;51.084;16.958;2022-08-21T09:10:38;2.30;;;2.10;;
54599;SDS011;40500;51.084;16.958;2022-08-21T09:13:18;2.50;;;1.80;;
54599;SDS011;40500;51.084;16.958;2022-08-21T09:15:53;4.20;;;2.30;;
54599;SDS011;40500;51.084;16.958;2022-08-21T09:18:31;4.90;;;1.90;;
54599;SDS011;40500;51.084;16.958;2022-08-21T09:21:11;2.10;;;1.50;;
54599;SDS011;40500;51.084;16.958;2022-08-21T09:23:52;2.60;;;1.80;;
54599;SDS011;40500;51.084;16.958;2022-08-21T09:26:27;2.20;;;1.70;;
54599;SDS011;40500;51.084;16.958;2022-08-21T09:29:01;2.40;;;1.60;;
54599;SDS011;40500;51.084;16.958;2022-08-21T09:31:30;2.50;;;1.80;;
54599;SDS011;40500;51.084;16.958;2022-08-21T09:34:00;2.80;;;1.50;;
54599;SDS011;40500;51.084;16.958;2022-08-21T09:36:36;1.80;;;1.60;;
54599;SDS011;40500;51.084;16.958;2022-08-21T09:39:07;4.00;;;1.50;;
54599;SDS011;40500;51.084;16.958;2022-08-21T09:41:37;2.40;;;1.60;;
54599;SDS011;40500;51.084;16.958;2022-08-21T09:44:07;3.20;;;1.70;;
54599;SDS011;40500;51.084;16.958;2022-08-21T09:46:35;1.60;;;1.20;;
54599;SDS011;40500;51.084;16.958;2022-08-21T09:49:03;2.50;;;1.10;;
54599;SDS011;40500;51.084;16.958;2022-08-21T09:51:39;1.40;;;1.20;;
54599;SDS011;40500;51.084;16.958;2022-08-21T09:54:20;5.60;;;1.60;;
54599;SDS011;40500;51.084;16.958;2022-08-21T09:56:54;2.40;;;1.50;;
54599;SDS011;40500;51.084;16.958;2022-08-21T09:59:42;2.80;;;1.10;;
54599;SDS011;40500;51.084;16.958;2022-08-21T10:02:26;3.00;;;1.60;;
54599;SDS011;40500;51.084;16.958;2022-08-21T10:04:59;1.40;;;1.20;;
54599;SDS011;40500;51.084;16.958;2022-08-21T10:07:30;1.30;;;1.20;;
54599;SDS011;40500;51.084;16.958;2022-08-21T10:09:59;3.00;;;1.40;;
54599;SDS011;40500;51.084;16.958;2022-08-21T10:12:32;3.20;;;1.30;;
54599;SDS011;40500;51.084;16.958;2022-08-21T10:15:08;1.60;;;1.40;;
54599;SDS011;40500;51.084;16.958;2022-08-21T10:17:43;2.00;;;1.30;;
54599;SDS011;40500;51.084;16.958;2022-08-21T10:22:50;2.50;;;1.20;;
54599;SDS011;40500;51.084;16.958;2022-08-21T10:25:31;2.80;;;1.40;;
54599;SDS011;40500;51.084;16.958;2022-08-21T10:28:06;2.10;;;1.10;;
54599;SDS011;40500;51.084;16.958;2022-08-21T10:30:41;2.60;;;1.40;;
54599;SDS011;40500;51.084;16.958;2022-08-21T10:33:26;3.30;;;1.40;;
54599;SDS011;40500;51.084;16.958;2022-08-21T10:36:09;1.60;;;1.30;;
54599;SDS011;40500;51.084;16.958;2022-08-21T10:38:54;2.90;;;1.30;;
54599;SDS011;40500;51.084;16.958;2022-08-21T10:41:48;1.90;;;1.50;;
54599;SDS011;40500;51.084;16.958;2022-08-21T10:44:34;2.40;;;1.80;;
54599;SDS011;40500;51.084;16.958;2022-08-21T10:47:06;1.60;;;1.40;;
54599;SDS011;40500;51.084;16.958;2022-08-21T10:49:42;2.20;;;1.60;;
54599;SDS011;40500;51.084;16.958;2022-08-21T10:52:31;3.20;;;1.40;;
54599;SDS011;40500;51.084;16.958;2022-08-21T10:55:11;1.80;;;1.40;;
54599;SDS011;40500;51.084;16.958;2022-08-21T10:57:43;3.40;;;1.70;;
54599;SDS011;40500;51.084;16.958;2022-08-21T11:00:17;1.90;;;1.50;;
54599;SDS011;40500;51.084;16.958;2022-08-21T11:02:49;2.70;;;1.60;;
54599;SDS011;40500;51.084;16.958;2022-08-21T11:05:24;1.70;;;1.50;;
54599;SDS011;40500;51.084;16.958;2022-08-21T11:07:57;3.30;;;1.30;;
54599;SDS011;40500;51.084;16.958;2022-08-21T11:13:08;3.20;;;1.80;;
54599;SDS011;40500;51.084;16.958;2022-08-21T11:15:43;3.80;;;1.80;;
54599;SDS011;40500;51.084;16.958;2022-08-21T11:18:20;1.70;;;1.40;;
54599;SDS011;40500;51.084;16.958;2022-08-21T11:20:54;2.70;;;1.40;;
54599;SDS011;40500;51.084;16.958;2022-08-21T11:23:31;4.10;;;1.90;;
54599;SDS011;40500;51.084;16.958;2022-08-21T11:26:08;3.00;;;2.10;;
54599;SDS011;40500;51.084;16.958;2022-08-21T11:28:43;5.30;;;1.90;;
54599;SDS011;40500;51.084;16.958;2022-08-21T11:31:21;4.30;;;2.00;;
54599;SDS011;40500;51.084;16.958;2022-08-21T11:34:02;3.50;;;2.00;;
54599;SDS011;40500;51.084;16.958;2022-08-21T11:36:41;2.10;;;1.50;;
54599;SDS011;40500;51.084;16.958;2022-08-21T11:39:20;3.20;;;1.80;;
54599;SDS011;40500;51.084;16.958;2022-08-21T11:41:54;2.30;;;1.50;;
54599;SDS011;40500;51.084;16.958;2022-08-21T11:44:38;3.40;;;1.90;;
54599;SDS011;40500;51.084;16.958;2022-08-21T11:47:18;3.40;;;1.50;;
54599;SDS011;40500;51.084;16.958;2022-08-21T11:49:56;3.80;;;1.80;;
54599;SDS011;40500;51.084;16.958;2022-08-21T11:52:52;2.00;;;1.50;;
54599;SDS011;40500;51.084;16.958;2022-08-21T11:55:26;2.70;;;1.50;;
54599;SDS011;40500;51.084;16.958;2022-08-21T11:57:59;5.30;;;1.80;;
54599;SDS011;40500;51.084;16.958;2022-08-21T12:00:33;3.80;;;1.60;;
54599;SDS011;40500;51.084;16.958;2022-08-21T12:03:07;3.90;;;1.70;;
54599;SDS011;40500;51.084;16.958;2022-08-21T12:05:39;1.90;;;1.30;;
54599;SDS011;40500;51.084;16.958;2022-08-21T12:08:11;3.20;;;1.60;;
54599;SDS011;40500;51.084;16.958;2022-08-21T12:10:42;2.30;;;1.50;;
54599;SDS011;40500;51.084;16.958;2022-08-21T12:13:26;3.80;;;1.50;;
54599;SDS011;40500;51.084;16.958;2022-08-21T12:16:09;3.60;;;1.70;;
54599;SDS011;40500;51.084;16.958;2022-08-21T12:18:39;4.60;;;1.60;;
54599;SDS011;40500;51.084;16.958;2022-08-21T12:21:19;4.20;;;1.70;;
54599;SDS011;40500;51.084;16.958;2022-08-21T12:23:57;3.00;;;1.70;;
54599;SDS011;40500;51.084;16.958;2022-08-21T12:26:31;2.70;;;1.70;;
54599;SDS011;40500;51.084;16.958;2022-08-21T12:29:05;2.80;;;1.50;;
54599;SDS011;40500;51.084;16.958;2022-08-21T12:31:48;2.10;;;1.60;;
54599;SDS011;40500;51.084;16.958;2022-08-21T12:34:27;2.10;;;1.60;;
54599;SDS011;40500;51.084;16.958;2022-08-21T12:37:00;2.20;;;1.50;;
54599;SDS011;40500;51.084;16.958;2022-08-21T12:39:31;3.00;;;1.80;;
54599;SDS011;40500;51.084;16.958;2022-08-21T12:42:05;4.50;;;2.00;;
54599;SDS011;40500;51.084;16.958;2022-08-21T12:44:39;2.80;;;2.00;;
54599;SDS011;40500;51.084;16.958;2022-08-21T12:47:14;3.20;;;1.80;;
54599;SDS011;40500;51.084;16.958;2022-08-21T12:49:51;3.20;;;1.70;;
54599;SDS011;40500;51.084;16.958;2022-08-21T12:52:25;2.80;;;2.20;;
54599;SDS011;40500;51.084;16.958;2022-08-21T12:55:07;4.10;;;2.10;;
54599;SDS011;40500;51.084;16.958;2022-08-21T12:57:39;3.60;;;1.90;;
54599;SDS011;40500;51.084;16.958;2022-08-21T13:00:11;3.40;;;2.00;;
54599;SDS011;40500;51.084;16.958;2022-08-21T13:02:43;2.70;;;1.70;;
54599;SDS011;40500;51.084;16.958;2022-08-21T13:05:16;3.90;;;1.90;;
54599;SDS011;40500;51.084;16.958;2022-08-21T13:07:48;3.70;;;2.10;;
54599;SDS011;40500;51.084;16.958;2022-08-21T13:10:18;3.10;;;2.10;;
54599;SDS011;40500;51.084;16.958;2022-08-21T13:12:48;2.20;;;1.60;;
54599;SDS011;40500;51.084;16.958;2022-08-21T13:15:22;2.80;;;1.60;;
54599;SDS011;40500;51.084;16.958;2022-08-21T13:17:59;3.50;;;2.10;;
54599;SDS011;40500;51.084;16.958;2022-08-21T13:20:29;2.80;;;2.00;;
54599;SDS011;40500;51.084;16.958;2022-08-21T13:22:59;2.40;;;1.80;;
54599;SDS011;40500;51.084;16.958;2022-08-21T13:25:29;2.50;;;1.70;;
54599;SDS011;40500;51.084;16.958;2022-08-21T13:28:04;3.30;;;1.90;;
54599;SDS011;40500;51.084;16.958;2022-08-21T13:30:37;4.00;;;1.40;;
54599;SDS011;40500;51.084;16.958;2022-08-21T13:33:09;4.10;;;2.00;;
54599;SDS011;40500;51.084;16.958;2022-08-21T13:35:46;2.90;;;1.70;;
54599;SDS011;40500;51.084;16.958;2022-08-21T13:38:16;3.20;;;1.90;;
54599;SDS011;40500;51.084;16.958;2022-08-21T13:40:54;5.20;;;2.30;;
54599;SDS011;40500;51.084;16.958;2022-08-21T13:43:25;2.90;;;2.00;;
54599;SDS011;40500;51.084;16.958;2022-08-21T13:45:55;3.20;;;1.80;;
54599;SDS011;40500;51.084;16.958;2022-08-21T13:48:24;2.30;;;1.80;;
54599;SDS011;40500;51.084;16.958;2022-08-21T13:50:56;2.50;;;1.90;;
54599;SDS011;40500;51.084;16.958;2022-08-21T13:53:29;3.10;;;2.20;;
54599;SDS011;40500;51.084;16.958;2022-08-21T13:56:00;4.70;;;1.90;;
54599;SDS011;40500;51.084;16.958;2022-08-21T13:58:30;3.00;;;1.90;;
54599;SDS011;40500;51.084;16.958;2022-08-21T14:01:00;2.90;;;1.70;;
54599;SDS011;40500;51.084;16.958;2022-08-21T14:03:33;3.40;;;2.30;;
54599;SDS011;40500;51.084;16.958;2022-08-21T14:06:10;2.90;;;2.10;;
54599;SDS011;40500;51.084;16.958;2022-08-21T14:11:10;2.30;;;2.00;;
54599;SDS011;40500;51.084;16.958;2022-08-21T14:13:40;5.40;;;1.90;;
54599;SDS011;40500;51.084;16.958;2022-08-21T14:16:11;2.70;;;1.70;;
54599;SDS011;40500;51.084;16.958;2022-08-21T14:18:46;3.40;;;1.90;;
54599;SDS011;40500;51.084;16.958;2022-08-21T14:21:24;4.30;;;2.20;;
54599;SDS011;40500;51.084;16.958;2022-08-21T14:24:00;3.20;;;2.20;;
54599;SDS011;40500;51.084;16.958;2022-08-21T14:26:30;3.20;;;2.10;;
54599;SDS011;40500;51.084;16.958;2022-08-21T14:28:59;3.30;;;2.30;;
54599;SDS011;40500;51.084;16.958;2022-08-21T14:34:10;3.00;;;1.70;;
54599;SDS011;40500;51.084;16.958;2022-08-21T14:36:46;1.60;;;1.50;;
54599;SDS011;40500;51.084;16.958;2022-08-21T14:39:14;3.40;;;1.70;;
54599;SDS011;40500;51.084;16.958;2022-08-21T14:41:42;3.60;;;1.80;;
54599;SDS011;40500;51.084;16.958;2022-08-21T14:44:12;2.40;;;2.20;;
54599;SDS011;40500;51.084;16.958;2022-08-21T14:46:41;2.80;;;2.10;;
54599;SDS011;40500;51.084;16.958;2022-08-21T14:49:23;2.70;;;2.10;;
54599;SDS011;40500;51.084;16.958;2022-08-21T14:51:52;2.00;;;1.70;;
54599;SDS011;40500;51.084;16.958;2022-08-21T14:54:23;5.70;;;2.50;;
54599;SDS011;40500;51.084;16.958;2022-08-21T14:56:57;5.20;;;2.60;;
54599;SDS011;40500;51.084;16.958;2022-08-21T14:59:26;3.20;;;2.20;;
54599;SDS011;40500;51.084;16.958;2022-08-21T15:01:54;3.60;;;2.20;;
54599;SDS011;40500;51.084;16.958;2022-08-21T15:04:22;3.80;;;2.60;;
54599;SDS011;40500;51.084;16.958;2022-08-21T15:06:50;3.10;;;2.30;;
54599;SDS011;40500;51.084;16.958;2022-08-21T15:09:17;5.80;;;2.70;;